KAZO/AZO METAR and TAF weather

Enter ICAO airport designator
Station Type Date Time Source
KAZO METAR 2021/10/22 19:53 UTC NOAA

KAZO 221953Z 18004KT 10SM OVC034 11/03 A3001 RMK AO2 SLP169 T01060033


Station Type Date Time Source
KAZO Decoded METAR 2021/10/22 19:53 UTC NOAA

KALAMAZOO/BATTLE CREEK AIRPORT, MI, United States (KAZO) 42-14N 085-33W 272M
Oct 22, 2021 - 03:53 PM EDT / 2021.10.22 1953 UTC
Wind: from the S (180 degrees) at 5 MPH (4 KT):0
Visibility: 10 mile(s):0
Sky conditions: overcast
Temperature: 51.1 F (10.6 C)
Dew Point: 37.9 F (3.3 C)
Relative Humidity: 60%
Pressure (altimeter): 30.01 in. Hg (1016 hPa)
ob: KAZO 221953Z 18004KT 10SM OVC034 11/03 A3001 RMK AO2 SLP169 T01060033
cycle: 20

Station Type Date Time Source
KAZO TAF 2021/10/22 18:24 UTC NOAA

TAF KAZO 221721Z 2218/2318 VRB04KT P6SM OVC040

Example: see airport list